Time;durP1;ratioP1;P1;durP2;ratioP2;P2;SDS_P1;SDS_P2;PMS_P1;PMS_P2;Temp;Humidity;BMP_temperature;BMP_pressure;BME280_temperature;BME280_humidity;BME280_pressure;Samples;Min_cycle;Max_cycle;Signal;HPM_P1;HPM_P2
2023/03/11 00:00:32;;;;;;;;;13.40;10.80;;;;;14.62;50.47;96178.75;6262991;27;96364;-57
2023/03/11 00:03:35;;;;;;;;;11.80;10.20;;;;;14.63;50.31;96188.50;6272110;27;96653;-57
2023/03/11 00:06:39;;;;;;;;;9.00;8.00;;;;;14.62;50.22;96186.91;6202376;27;96771;-56
2023/03/11 00:09:42;;;;;;;;;11.00;10.40;;;;;14.54;50.20;96190.38;6295521;27;96419;-56
2023/03/11 00:12:47;;;;;;;;;8.00;7.50;;;;;14.50;50.29;96192.13;6239616;27;96234;-57
2023/03/11 00:15:54;;;;;;;;;8.25;8.00;;;;;14.28;50.56;96173.16;6232787;27;96768;-57
2023/03/11 00:18:58;;;;;;;;;10.20;9.20;;;;;14.45;50.53;96196.88;6260407;27;99008;-56
2023/03/11 00:22:02;;;;;;;;;8.60;7.20;;;;;14.44;50.34;96174.38;6241606;27;98395;-56
2023/03/11 00:25:06;;;;;;;;;9.00;8.40;;;;;14.37;50.11;96160.47;6291112;27;97537;-56
2023/03/11 00:28:11;;;;;;;;;6.20;6.20;;;;;14.48;50.34;96185.41;6270608;27;96973;-56
2023/03/11 00:31:15;;;;;;;;;6.20;6.00;;;;;14.47;50.40;96173.75;6269763;27;96942;-58
2023/03/11 00:34:19;;;;;;;;;8.60;8.60;;;;;14.43;50.36;96177.41;6209325;28;96936;-57
2023/03/11 00:37:22;;;;;;;;;7.00;6.50;;;;;14.48;50.13;96169.94;6189755;28;96351;-57
2023/03/11 00:40:28;;;;;;;;;8.40;7.40;;;;;14.51;50.09;96161.19;6275499;27;96691;-56
2023/03/11 00:43:33;;;;;;;;;11.00;9.00;;;;;14.45;50.23;96165.16;6276149;27;97604;-57
2023/03/11 00:46:36;;;;;;;;;9.60;8.20;;;;;14.53;50.01;96172.50;6208350;27;96251;-56
2023/03/11 00:49:41;;;;;;;;;7.00;7.00;;;;;14.51;50.08;96165.81;6276884;27;96550;-56
2023/03/11 00:52:45;;;;;;;;;9.00;9.00;;;;;14.46;50.13;96166.75;6276690;27;96250;-56
2023/03/11 00:55:49;;;;;;;;;7.00;6.40;;;;;14.49;50.09;96166.13;6257494;27;98533;-56
2023/03/11 00:58:54;;;;;;;;;7.20;7.20;;;;;14.45;50.02;96169.78;6202315;28;96829;-57
2023/03/11 01:01:58;;;;;;;;;8.00;8.00;;;;;14.41;50.21;96172.31;6276309;27;96756;-56
2023/03/11 01:05:02;;;;;;;;;8.00;7.00;;;;;14.40;50.22;96162.56;6276426;27;96501;-56
2023/03/11 01:08:06;;;;;;;;;8.00;8.00;;;;;14.29;50.33;96172.06;6267832;27;96254;-56
2023/03/11 01:11:09;;;;;;;;;6.80;6.80;;;;;14.27;50.51;96160.72;6250835;27;96645;-56
2023/03/11 01:14:14;;;;;;;;;6.00;6.00;;;;;14.27;50.44;96161.50;6258189;27;96536;-56
2023/03/11 01:17:20;;;;;;;;;6.60;6.60;;;;;14.23;50.54;96155.13;6279111;27;96296;-57
2023/03/11 01:20:24;;;;;;;;;9.60;9.00;;;;;14.24;50.74;96140.47;6210400;28;96460;-56
2023/03/11 01:23:27;;;;;;;;;8.00;7.00;;;;;14.29;50.54;96147.66;6212220;28;96394;-56
2023/03/11 01:26:31;;;;;;;;;8.60;7.60;;;;;14.30;50.56;96135.72;6198364;28;97470;-56
2023/03/11 01:29:35;;;;;;;;;8.00;6.50;;;;;14.25;50.69;96142.06;6253470;27;96653;-56
2023/03/11 01:32:39;;;;;;;;;8.00;7.00;;;;;14.31;50.43;96142.75;6277448;27;96638;-56
2023/03/11 01:35:42;;;;;;;;;11.60;11.00;;;;;14.33;50.83;96138.59;6212964;27;96513;-58
2023/03/11 01:38:46;;;;;;;;;8.20;8.20;;;;;14.30;50.22;96157.41;6278219;27;96630;-56
2023/03/11 01:41:51;;;;;;;;;7.25;7.00;;;;;14.25;50.08;96143.97;6209116;27;96413;-56
2023/03/11 01:44:56;;;;;;;;;7.00;7.00;;;;;14.15;49.89;96142.34;6186843;28;96358;-56
2023/03/11 01:48:00;;;;;;;;;8.00;7.00;;;;;14.04;49.28;96140.19;6209809;27;96254;-58
2023/03/11 01:51:04;;;;;;;;;8.00;7.40;;;;;13.98;49.76;96139.53;6254599;27;96319;-56
2023/03/11 01:54:13;;;;;;;;;7.25;7.00;;;;;13.96;49.25;96143.66;6272655;27;96368;-57
2023/03/11 01:57:17;;;;;;;;;5.80;5.40;;;;;13.99;48.30;96146.53;6261208;27;96697;-56
2023/03/11 02:00:23;;;;;;;;;7.40;7.00;;;;;14.07;47.55;96140.41;6254855;27;96408;-56
2023/03/11 02:03:29;;;;;;;;;4.50;4.50;;;;;14.00;47.00;96144.63;6187485;28;96322;-56
2023/03/11 02:06:34;;;;;;;;;6.40;6.40;;;;;14.08;46.87;96147.38;6255195;27;96834;-56
2023/03/11 02:09:38;;;;;;;;;4.00;4.00;;;;;14.10;46.84;96153.31;6254964;27;96624;-56
2023/03/11 02:12:43;;;;;;;;;5.20;5.00;;;;;13.97;46.57;96147.97;6187357;28;96772;-56
2023/03/11 02:15:59;;;;;;;;;5.00;5.00;;;;;13.81;46.60;96167.31;6203461;28;96542;-56
2023/03/11 02:19:12;;;;;;;;;4.00;4.00;;;;;13.81;46.73;96151.06;6292906;27;97858;-57
2023/03/11 02:22:16;;;;;;;;;4.00;4.00;;;;;13.69;46.39;96155.41;6267327;27;96305;-56
2023/03/11 02:25:28;;;;;;;;;4.00;4.00;;;;;13.63;45.91;96157.47;6271422;27;96660;-56
2023/03/11 02:28:36;;;;;;;;;2.00;2.00;;;;;13.64;45.83;96150.94;6262349;27;97260;-56
2023/03/11 02:31:42;;;;;;;;;4.00;4.00;;;;;13.48;45.05;96162.44;6279829;27;96493;-56
2023/03/11 02:34:47;;;;;;;;;3.00;3.00;;;;;13.48;44.94;96159.72;6278943;27;96329;-56
2023/03/11 02:37:52;;;;;;;;;2.00;2.00;;;;;13.33;44.98;96169.81;6279568;27;96487;-56
2023/03/11 02:40:58;;;;;;;;;1.80;1.20;;;;;13.34;45.11;96157.06;6279061;27;97453;-56
2023/03/11 02:44:06;;;;;;;;;3.00;3.00;;;;;13.25;45.32;96161.59;6260165;27;96465;-56
2023/03/11 02:47:10;;;;;;;;;3.75;3.75;;;;;13.17;45.53;96162.31;6187763;28;97502;-56
2023/03/11 02:50:16;;;;;;;;;4.60;4.60;;;;;13.22;45.75;96175.72;6259920;27;96669;-56
2023/03/11 02:53:20;;;;;;;;;2.00;2.00;;;;;13.16;46.08;96172.34;6254551;27;97834;-56
2023/03/11 02:56:24;;;;;;;;;2.80;2.80;;;;;13.17;45.87;96167.72;6259844;27;99079;-56
2023/03/11 02:59:29;;;;;;;;;4.40;4.40;;;;;13.13;45.43;96172.16;6271796;27;96609;-56
2023/03/11 03:02:34;;;;;;;;;3.00;3.00;;;;;13.07;45.02;96176.03;6253237;27;96862;-56
2023/03/11 03:05:37;;;;;;;;;2.00;2.00;;;;;13.07;45.35;96168.72;6273255;27;97228;-57
2023/03/11 03:08:41;;;;;;;;;2.00;2.00;;;;;12.85;44.11;96174.06;6253156;27;96209;-56
2023/03/11 03:11:45;;;;;;;;;3.00;3.00;;;;;12.90;43.62;96177.44;6253770;27;97958;-56
2023/03/11 03:14:50;;;;;;;;;2.00;2.00;;;;;12.91;42.81;96168.22;6186652;28;96291;-56
2023/03/11 03:17:54;;;;;;;;;3.00;2.00;;;;;12.78;42.94;96170.94;6253560;27;96248;-56
2023/03/11 03:20:57;;;;;;;;;2.40;2.40;;;;;12.78;43.01;96171.75;6238521;27;98984;-57
2023/03/11 03:24:01;;;;;;;;;4.00;4.00;;;;;12.77;42.84;96185.56;6279373;27;96828;-57
2023/03/11 03:27:05;;;;;;;;;2.00;2.00;;;;;12.82;42.99;96180.88;6277857;27;97163;-56
2023/03/11 03:30:11;;;;;;;;;1.40;1.40;;;;;12.75;43.02;96175.06;6258105;27;97429;-56
2023/03/11 03:33:15;;;;;;;;;2.00;2.00;;;;;12.67;43.32;96177.66;6253756;27;96933;-56
2023/03/11 03:36:19;;;;;;;;;3.75;3.50;;;;;12.75;43.49;96163.47;6252777;27;96750;-56
2023/03/11 03:39:29;;;;;;;;;3.00;3.00;;;;;12.82;43.21;96166.53;6313502;27;96714;-57
2023/03/11 03:42:34;;;;;;;;;3.00;2.25;;;;;12.75;43.30;96175.06;6269107;27;96722;-57
2023/03/11 03:45:39;;;;;;;;;2.00;2.00;;;;;12.73;43.32;96174.56;6261091;27;96277;-57
2023/03/11 03:48:43;;;;;;;;;3.60;3.60;;;;;12.49;43.61;96176.66;6269858;27;97279;-58
2023/03/11 03:51:47;;;;;;;;;2.20;2.20;;;;;12.41;44.14;96188.94;6260385;27;98939;-57
2023/03/11 03:55:07;;;;;;;;;2.40;2.40;;;;;12.47;43.99;96179.66;6272708;27;97915;-56
2023/03/11 03:58:10;;;;;;;;;2.00;2.00;;;;;12.52;44.03;96178.75;6277319;27;96463;-56
2023/03/11 04:01:15;;;;;;;;;1.60;1.60;;;;;12.44;44.07;96169.47;6255293;27;96521;-56
2023/03/11 04:04:18;;;;;;;;;2.40;2.40;;;;;12.55;44.10;96161.97;6269783;27;96293;-56
2023/03/11 04:07:22;;;;;;;;;1.80;1.80;;;;;12.54;43.90;96163.06;6275164;27;96327;-56
2023/03/11 04:10:26;;;;;;;;;3.00;3.00;;;;;12.48;43.85;96175.84;6263032;27;96852;-56
2023/03/11 04:13:30;;;;;;;;;3.00;3.00;;;;;12.39;43.87;96166.03;6253486;27;96326;-56
2023/03/11 04:16:34;;;;;;;;;3.00;3.00;;;;;12.33;43.85;96164.53;6271957;27;96377;-57
2023/03/11 04:19:42;;;;;;;;;3.00;3.00;;;;;12.31;43.72;96143.25;6200442;27;96626;-58
2023/03/11 04:22:46;;;;;;;;;3.40;3.40;;;;;12.32;43.49;96149.41;6276240;27;96375;-56
2023/03/11 04:25:50;;;;;;;;;2.00;2.00;;;;;12.38;43.44;96134.72;6272999;27;97279;-57
2023/03/11 04:28:54;;;;;;;;;3.00;3.00;;;;;12.42;43.60;96138.41;6272665;27;96264;-57
2023/03/11 04:32:00;;;;;;;;;3.50;3.50;;;;;12.34;43.42;96131.84;6257555;27;97326;-56
2023/03/11 04:35:05;;;;;;;;;1.80;1.00;;;;;12.37;43.36;96131.22;6256213;27;96541;-57
2023/03/11 04:38:09;;;;;;;;;3.00;3.00;;;;;12.25;43.60;96138.22;6279686;27;96402;-56
2023/03/11 04:41:12;;;;;;;;;4.00;4.00;;;;;12.18;43.89;96135.91;6257007;27;96347;-56
2023/03/11 04:44:17;;;;;;;;;4.40;4.40;;;;;12.20;43.93;96135.63;6235107;27;98924;-56
2023/03/11 04:47:21;;;;;;;;;2.00;2.00;;;;;12.27;44.18;96138.72;6269212;27;96258;-56
2023/03/11 04:50:25;;;;;;;;;2.00;2.00;;;;;12.07;44.65;96142.63;6275983;27;96493;-56
2023/03/11 04:53:29;;;;;;;;;2.00;2.00;;;;;12.14;44.58;96141.13;6272677;27;96350;-56
2023/03/11 04:56:33;;;;;;;;;3.60;3.60;;;;;12.21;44.36;96158.84;6268227;27;97580;-57
2023/03/11 04:59:37;;;;;;;;;2.50;2.50;;;;;12.17;44.61;96165.94;6261251;27;98750;-58
2023/03/11 05:02:42;;;;;;;;;3.00;3.00;;;;;12.13;44.41;96169.22;6279204;27;96239;-56
2023/03/11 05:05:47;;;;;;;;;2.00;2.00;;;;;12.02;44.92;96154.28;6277351;27;96385;-55
2023/03/11 05:08:51;;;;;;;;;2.00;2.00;;;;;11.78;45.51;96153.63;6278242;27;96260;-56
2023/03/11 05:11:56;;;;;;;;;4.00;4.00;;;;;11.42;46.70;96153.38;6289736;27;96542;-56
2023/03/11 05:15:01;;;;;;;;;3.00;3.00;;;;;11.26;47.75;96155.50;6288722;27;96647;-56
2023/03/11 05:18:06;;;;;;;;;3.00;3.00;;;;;11.34;48.20;96154.03;6299990;27;97497;-56
2023/03/11 05:21:12;;;;;;;;;4.00;4.00;;;;;11.30;48.00;96171.88;6265753;27;96369;-56
2023/03/11 05:24:15;;;;;;;;;3.40;3.40;;;;;11.12;48.99;96175.38;6280781;27;96383;-56
2023/03/11 05:27:20;;;;;;;;;2.20;2.00;;;;;11.06;49.74;96173.84;6280756;27;96355;-56
2023/03/11 05:30:28;;;;;;;;;3.00;3.00;;;;;10.98;50.02;96139.47;6245428;27;97118;-56
2023/03/11 05:33:34;;;;;;;;;2.20;2.20;;;;;11.04;50.59;96168.78;6270046;27;97688;-57
2023/03/11 05:36:40;;;;;;;;;2.60;2.00;;;;;10.93;50.37;96164.59;6253379;27;96680;-56
2023/03/11 05:39:43;;;;;;;;;2.20;2.20;;;;;10.74;50.88;96174.56;6269808;27;96303;-61
2023/03/11 05:42:48;;;;;;;;;1.67;1.67;;;;;10.69;51.47;96171.91;6256904;27;96503;-62
2023/03/11 05:45:51;;;;;;;;;2.00;2.00;;;;;10.62;51.46;96185.72;6266213;27;98479;-62
2023/03/11 05:48:56;;;;;;;;;2.00;2.00;;;;;10.49;52.15;96189.13;6277452;27;96845;-61
2023/03/11 05:52:00;;;;;;;;;1.00;1.00;;;;;10.39;52.41;96194.59;6273856;27;96244;-60
2023/03/11 05:55:08;;;;;;;;;3.00;2.00;;;;;10.43;52.55;96190.25;6276951;27;96250;-62
2023/03/11 05:58:13;;;;;;;;;2.00;1.00;;;;;10.42;52.87;96189.44;6271925;27;96841;-61
2023/03/11 06:01:19;;;;;;;;;3.00;3.00;;;;;10.36;53.19;96189.81;6266698;27;97004;-60
2023/03/11 06:04:24;;;;;;;;;1.50;1.50;;;;;10.39;53.57;96206.19;6273311;27;96311;-62
2023/03/11 06:07:27;;;;;;;;;4.00;4.00;;;;;10.25;53.63;96217.91;6278357;27;96317;-62
2023/03/11 06:10:31;;;;;;;;;3.40;3.40;;;;;10.10;52.74;96236.88;6274508;27;96223;-62
2023/03/11 06:13:35;;;;;;;;;2.80;2.80;;;;;9.79;52.33;96228.22;6267136;27;96839;-62
2023/03/11 06:16:38;;;;;;;;;3.50;3.00;;;;;9.68;51.85;96240.94;6252563;27;96401;-61
2023/03/11 06:19:45;;;;;;;;;2.40;2.40;;;;;9.57;51.87;96255.56;6224914;27;96615;-61
2023/03/11 06:22:49;;;;;;;;;3.00;2.00;;;;;9.31;51.94;96273.72;6229920;27;96779;-61
2023/03/11 06:25:57;;;;;;;;;2.00;2.00;;;;;9.00;52.25;96265.00;6256527;27;96522;-62
2023/03/11 06:29:01;;;;;;;;;2.00;1.40;;;;;8.75;52.39;96273.16;6274401;27;96291;-61
2023/03/11 06:32:05;;;;;;;;;2.00;2.00;;;;;8.60;52.66;96283.97;6271764;27;96153;-62
2023/03/11 06:35:11;;;;;;;;;4.00;4.00;;;;;8.79;52.39;96292.22;6265831;27;97375;-62
2023/03/11 06:38:15;;;;;;;;;3.25;3.25;;;;;8.84;52.16;96287.66;6255606;27;97751;-62
2023/03/11 06:41:18;;;;;;;;;2.80;2.80;;;;;8.58;52.50;96283.41;6268354;27;98022;-62
2023/03/11 06:44:22;;;;;;;;;3.00;3.00;;;;;8.70;51.78;96278.53;6199797;27;96054;-61
2023/03/11 06:47:25;;;;;;;;;2.60;2.60;;;;;8.77;51.72;96302.44;6269494;27;97428;-61
2023/03/11 06:50:31;;;;;;;;;4.00;4.00;;;;;8.86;51.58;96298.09;6274882;27;96305;-61
2023/03/11 06:53:37;;;;;;;;;2.80;2.80;;;;;8.85;51.23;96302.66;6259986;27;96525;-62
2023/03/11 06:56:40;;;;;;;;;5.25;5.25;;;;;8.87;50.40;96330.06;6255720;27;96323;-62
2023/03/11 06:59:44;;;;;;;;;3.00;3.00;;;;;8.96;50.24;96306.13;6276374;27;96734;-61
2023/03/11 07:02:51;;;;;;;;;3.20;3.20;;;;;8.86;50.40;96324.97;6266666;27;96825;-62
2023/03/11 07:05:58;;;;;;;;;4.00;4.00;;;;;8.89;50.37;96338.69;6270960;27;97090;-61
2023/03/11 07:09:01;;;;;;;;;1.75;1.75;;;;;8.85;50.70;96340.28;6291714;27;96297;-61
2023/03/11 07:12:06;;;;;;;;;3.75;3.75;;;;;8.81;50.96;96346.47;6269912;27;96408;-61
2023/03/11 07:15:12;;;;;;;;;3.80;3.80;;;;;8.76;51.14;96355.34;6268588;27;96320;-61
2023/03/11 07:18:20;;;;;;;;;3.00;3.00;;;;;8.84;51.36;96362.88;6271288;27;96555;-61
2023/03/11 07:21:25;;;;;;;;;3.00;3.00;;;;;8.86;51.64;96367.94;6267842;27;96289;-62
2023/03/11 07:24:28;;;;;;;;;4.00;4.00;;;;;8.90;52.32;96371.69;6189012;27;98505;-61
2023/03/11 07:27:32;;;;;;;;;5.00;5.00;;;;;8.78;53.21;96380.06;6199258;27;96773;-62
2023/03/11 07:30:35;;;;;;;;;2.75;2.75;;;;;8.68;53.92;96383.56;6211245;27;96796;-61
2023/03/11 07:33:38;;;;;;;;;2.00;1.60;;;;;8.83;53.39;96385.44;6199641;27;96452;-62
2023/03/11 07:36:43;;;;;;;;;2.00;2.00;;;;;8.73;54.07;96393.50;6261777;27;98714;-61
2023/03/11 07:39:46;;;;;;;;;4.00;4.00;;;;;8.47;54.11;96395.38;6285263;27;96565;-62
2023/03/11 07:42:50;;;;;;;;;3.00;2.80;;;;;8.42;54.69;96391.91;6236324;27;96359;-61
2023/03/11 07:46:03;;;;;;;;;1.75;1.75;;;;;8.48;54.79;96399.69;6288815;27;96949;-61
2023/03/11 07:49:06;;;;;;;;;4.40;4.40;;;;;8.54;54.15;96398.63;6271074;27;96525;-61
2023/03/11 07:52:11;;;;;;;;;3.00;3.00;;;;;8.51;54.01;96404.50;6194954;28;96672;-61
2023/03/11 07:55:14;;;;;;;;;3.00;2.40;;;;;8.36;54.19;96412.56;6187386;27;96499;-61
2023/03/11 07:58:18;;;;;;;;;2.50;2.50;;;;;8.37;54.08;96418.72;6198584;28;96250;-61
2023/03/11 08:01:23;;;;;;;;;1.00;1.00;;;;;8.16;53.35;96413.31;6257403;27;96614;-62
2023/03/11 08:04:27;;;;;;;;;1.00;1.00;;;;;8.05;53.03;96416.25;6207629;27;96979;-61
2023/03/11 08:07:32;;;;;;;;;2.00;2.00;;;;;8.08;53.46;96421.88;6274264;27;96492;-61
2023/03/11 08:10:36;;;;;;;;;1.20;1.20;;;;;8.10;54.02;96417.06;6272157;27;98564;-61
2023/03/11 08:13:40;;;;;;;;;2.00;2.00;;;;;8.19;54.54;96433.44;6195186;27;96516;-62
2023/03/11 08:16:43;;;;;;;;;2.00;2.00;;;;;8.05;55.14;96411.69;6282266;27;96416;-62
2023/03/11 08:19:49;;;;;;;;;4.00;4.00;;;;;8.06;55.83;96440.13;6265956;27;96386;-61
2023/03/11 08:22:53;;;;;;;;;4.00;3.50;;;;;8.10;55.71;96446.59;6202298;27;96174;-61
2023/03/11 08:26:03;;;;;;;;;4.00;4.00;;;;;8.13;55.75;96443.38;6207336;27;96428;-61
2023/03/11 08:29:07;;;;;;;;;3.00;3.00;;;;;8.22;55.53;96444.47;6210012;27;96789;-62
2023/03/11 08:32:10;;;;;;;;;2.75;2.75;;;;;8.18;55.08;96443.38;6210754;27;96561;-61
2023/03/11 08:35:14;;;;;;;;;4.00;4.00;;;;;8.14;55.39;96452.22;6282708;27;96681;-61
2023/03/11 08:38:18;;;;;;;;;5.67;5.00;;;;;8.23;55.22;96462.19;6241914;27;96377;-61
2023/03/11 08:41:22;;;;;;;;;5.00;5.00;;;;;8.20;55.28;96453.84;6245165;27;96261;-61
2023/03/11 08:44:25;;;;;;;;;6.00;6.00;;;;;8.11;55.25;96468.88;6306960;27;96793;-62
2023/03/11 08:47:28;;;;;;;;;5.00;4.40;;;;;8.37;55.47;96464.38;6262621;27;96357;-60
2023/03/11 08:50:32;;;;;;;;;3.00;3.00;;;;;8.25;55.12;96473.47;6206043;27;96350;-62
2023/03/11 08:53:51;;;;;;;;;3.40;3.40;;;;;8.24;54.93;96474.53;6258762;27;96159;-61
2023/03/11 08:56:54;;;;;;;;;4.00;4.00;;;;;8.32;54.99;96478.59;6236795;27;96289;-61
2023/03/11 08:59:58;;;;;;;;;5.00;5.00;;;;;8.41;54.93;96468.94;6201823;27;96475;-61
2023/03/11 09:03:01;;;;;;;;;3.00;3.00;;;;;8.57;54.48;96481.31;6262855;27;96450;-62
2023/03/11 09:06:07;;;;;;;;;3.80;3.80;;;;;8.57;53.83;96489.38;6285712;27;98907;-61
2023/03/11 09:09:13;;;;;;;;;5.00;5.00;;;;;8.99;53.46;96491.00;6205088;27;96420;-62
2023/03/11 09:12:16;;;;;;;;;2.50;2.50;;;;;9.15;52.74;96500.66;6201184;27;96181;-61
2023/03/11 09:15:20;;;;;;;;;4.33;4.33;;;;;9.18;52.86;96491.25;6263518;27;96589;-61
2023/03/11 09:18:23;;;;;;;;;3.75;3.00;;;;;9.20;52.28;96515.97;6198329;27;96406;-62
2023/03/11 09:21:27;;;;;;;;;7.00;6.60;;;;;9.13;52.34;96497.44;6267054;27;96732;-61
2023/03/11 09:24:33;;;;;;;;;5.50;5.25;;;;;9.18;52.66;96521.63;6249087;27;96382;-62
2023/03/11 09:27:36;;;;;;;;;4.60;4.60;;;;;9.18;52.45;96518.94;6262608;27;97711;-61
2023/03/11 09:30:39;;;;;;;;;4.20;4.20;;;;;9.18;52.14;96527.00;6207082;27;96871;-60
2023/03/11 09:33:43;;;;;;;;;4.50;4.00;;;;;8.95;51.33;96527.53;6214485;27;96273;-61
2023/03/11 09:36:46;;;;;;;;;4.00;3.50;;;;;9.10;51.28;96532.91;6284462;27;98384;-61
2023/03/11 09:39:51;;;;;;;;;3.50;3.50;;;;;8.93;51.44;96540.44;6204513;27;96753;-62
2023/03/11 09:43:07;;;;;;;;;5.00;5.00;;;;;9.47;51.30;96544.19;6203015;27;96331;-62
2023/03/11 09:46:31;;;;;;;;;5.00;5.00;;;;;9.36;50.85;96536.38;6207851;27;96813;-62
2023/03/11 09:49:50;;;;;;;;;5.60;5.60;;;;;9.37;51.30;96546.06;6250921;27;96350;-62
2023/03/11 09:53:04;;;;;;;;;6.00;6.00;;;;;9.08;51.98;96548.50;6290334;27;97064;-62
2023/03/11 09:56:11;;;;;;;;;5.60;5.60;;;;;8.81;52.77;96554.13;6319565;27;97081;-62
2023/03/11 09:59:19;;;;;;;;;7.60;7.00;;;;;8.77;52.98;96560.28;6235356;27;98390;-62
2023/03/11 10:02:25;;;;;;;;;5.50;5.50;;;;;8.80;53.15;96555.19;6234884;27;96166;-62
2023/03/11 10:05:29;;;;;;;;;8.00;7.25;;;;;8.72;53.24;96563.78;6219206;27;96520;-62
2023/03/11 10:08:40;;;;;;;;;5.00;5.00;;;;;8.75;53.78;96570.50;6200523;27;97040;-60
2023/03/11 10:12:02;;;;;;;;;9.00;8.00;;;;;8.58;53.98;96566.19;6200798;27;97494;-61
2023/03/11 10:15:19;;;;;;;;;4.80;4.80;;;;;8.59;53.85;96580.41;6202543;27;97486;-61
2023/03/11 10:18:38;;;;;;;;;7.00;6.00;;;;;8.54;54.13;96589.25;6277760;27;96347;-62
2023/03/11 10:21:51;;;;;;;;;7.00;7.00;;;;;8.40;54.38;96588.16;6205939;27;96454;-61
2023/03/11 10:25:05;;;;;;;;;6.00;6.00;;;;;8.44;54.07;96593.78;6270617;27;96835;-62
2023/03/11 10:28:13;;;;;;;;;6.00;6.00;;;;;8.38;54.14;96603.69;6254341;27;98661;-62
2023/03/11 10:31:22;;;;;;;;;8.00;7.40;;;;;8.73;54.06;96607.56;6286374;27;96653;-62
2023/03/11 10:34:32;;;;;;;;;5.75;5.75;;;;;8.67;54.36;96614.81;6254846;27;96821;-62
2023/03/11 10:37:40;;;;;;;;;7.00;7.00;;;;;8.49;53.89;96607.22;6215973;27;96241;-62
2023/03/11 10:40:55;;;;;;;;;8.75;8.50;;;;;8.44;54.97;96629.50;6283836;27;96819;-62
2023/03/11 10:44:06;;;;;;;;;6.00;6.00;;;;;8.23;55.42;96625.06;6255373;27;96376;-62
2023/03/11 10:47:17;;;;;;;;;6.25;6.00;;;;;8.16;55.80;96624.53;6292152;27;96581;-62
2023/03/11 10:50:21;;;;;;;;;7.00;7.00;;;;;8.15;55.20;96626.41;6286961;27;96728;-62
2023/03/11 10:53:24;;;;;;;;;5.40;5.40;;;;;8.22;55.35;96629.63;6251111;27;96787;-63
2023/03/11 10:56:31;;;;;;;;;9.00;7.50;;;;;7.89;55.83;96643.41;6244761;27;98328;-63
2023/03/11 10:59:47;;;;;;;;;8.00;7.00;;;;;7.75;57.06;96647.63;6237273;27;96256;-63
2023/03/11 11:02:56;;;;;;;;;6.00;6.00;;;;;7.77;56.93;96653.53;6252596;27;96199;-62
2023/03/11 11:06:03;;;;;;;;;7.40;7.00;;;;;7.81;57.57;96652.78;6262666;27;96467;-63
2023/03/11 11:09:15;;;;;;;;;8.00;8.00;;;;;7.77;57.24;96664.28;6281726;27;99700;-63
2023/03/11 11:12:21;;;;;;;;;9.00;8.00;;;;;7.53;58.10;96660.31;6285785;27;96344;-62
2023/03/11 11:15:29;;;;;;;;;8.40;8.00;;;;;7.27;59.00;96668.16;6250752;27;97459;-62
2023/03/11 11:18:36;;;;;;;;;8.00;8.00;;;;;6.98;59.32;96656.09;6241363;27;96276;-62
2023/03/11 11:21:42;;;;;;;;;7.00;7.00;;;;;6.95;59.87;96684.19;6254102;27;96449;-63
2023/03/11 11:24:47;;;;;;;;;8.00;7.40;;;;;6.73;61.26;96688.78;6269319;27;96689;-62
2023/03/11 11:27:54;;;;;;;;;7.00;7.00;;;;;6.76;61.04;96703.50;6239965;27;96511;-62
2023/03/11 11:31:02;;;;;;;;;8.00;8.00;;;;;6.49;61.99;96696.25;6275608;27;96680;-62
2023/03/11 11:34:27;;;;;;;;;7.80;7.20;;;;;6.53;62.06;96709.94;6272083;27;96338;-62
2023/03/11 11:37:33;;;;;;;;;6.00;6.00;;;;;6.76;61.68;96719.56;6295574;27;96176;-62
2023/03/11 11:40:37;;;;;;;;;8.00;8.00;;;;;6.61;61.85;96728.22;6295838;27;96262;-62
2023/03/11 11:43:48;;;;;;;;;10.00;10.00;;;;;6.56;62.04;96730.03;6255136;27;96564;-62
2023/03/11 11:46:57;;;;;;;;;9.00;9.00;;;;;6.58;62.00;96727.94;6252342;27;96316;-62
2023/03/11 11:50:04;;;;;;;;;7.00;7.00;;;;;6.61;62.21;96733.59;6255082;27;96628;-61
2023/03/11 11:53:24;;;;;;;;;7.00;6.00;;;;;6.53;62.21;96753.59;6281274;27;96293;-62
2023/03/11 11:56:28;;;;;;;;;10.00;10.00;;;;;6.28;63.02;96755.91;6291841;27;96332;-62
2023/03/11 11:59:31;;;;;;;;;10.40;8.80;;;;;6.35;62.85;96750.41;6250636;27;96256;-62
2023/03/11 12:02:56;;;;;;;;;9.00;9.00;;;;;6.35;62.69;96761.88;6242226;27;96662;-62
2023/03/11 12:06:05;;;;;;;;;8.00;7.00;;;;;6.49;62.69;96773.06;6263536;27;96709;-61
2023/03/11 12:09:23;;;;;;;;;8.00;8.00;;;;;6.44;62.68;96781.84;6276187;27;96382;-62
2023/03/11 12:12:36;;;;;;;;;7.60;7.60;;;;;6.46;62.60;96795.75;6253529;27;96957;-62
2023/03/11 12:15:43;;;;;;;;;10.60;10.00;;;;;6.43;62.47;96795.44;6263154;27;96244;-62
2023/03/11 12:18:57;;;;;;;;;7.00;7.00;;;;;6.63;62.17;96797.59;6201740;27;96404;-62
2023/03/11 12:22:25;;;;;;;;;8.00;8.00;;;;;6.55;62.04;96806.84;6312660;27;96488;-63
2023/03/11 12:25:36;;;;;;;;;9.40;9.00;;;;;6.48;62.33;96804.38;6196988;27;96611;-62
2023/03/11 12:28:46;;;;;;;;;7.25;6.25;;;;;6.46;61.60;96803.78;6242943;27;96433;-62
2023/03/11 12:31:50;;;;;;;;;6.60;6.00;;;;;6.45;62.47;96845.00;6250051;27;97336;-62
2023/03/11 12:35:00;;;;;;;;;7.60;7.60;;;;;6.44;62.61;96858.63;6294863;27;96509;-63
2023/03/11 12:38:15;;;;;;;;;7.50;7.25;;;;;6.46;62.05;96884.09;6272298;27;96736;-62
2023/03/11 12:41:31;;;;;;;;;7.00;7.00;;;;;6.44;62.12;96898.78;6248973;27;96404;-62
2023/03/11 12:44:34;;;;;;;;;6.80;6.80;;;;;6.41;62.31;96877.84;6249417;27;96336;-62
2023/03/11 12:47:37;;;;;;;;;6.80;6.80;;;;;6.54;61.87;96906.97;6289851;27;96358;-62
2023/03/11 12:50:43;;;;;;;;;8.00;8.00;;;;;6.75;60.82;96937.53;6282073;27;96597;-62
2023/03/11 12:53:48;;;;;;;;;7.25;7.25;;;;;6.76;60.53;96939.16;6260786;27;96223;-62
2023/03/11 12:56:56;;;;;;;;;7.00;6.00;;;;;6.89;60.30;96949.53;6245518;27;96200;-61
2023/03/11 13:00:29;;;;;;;;;8.60;8.60;;;;;6.88;60.20;96964.81;6218133;27;96599;-62
2023/03/11 13:04:00;;;;;;;;;10.00;8.00;;;;;7.01;59.23;96977.03;6227598;27;97610;-62
2023/03/11 13:07:37;;;;;;;;;6.60;6.60;;;;;7.02;57.87;96988.56;6255331;27;97764;-62
2023/03/11 13:10:42;;;;;;;;;9.60;9.60;;;;;6.99;57.52;96983.72;6211341;27;96660;-62
2023/03/11 13:13:45;;;;;;;;;9.40;8.40;;;;;7.02;58.11;97002.78;6272441;27;96192;-62
2023/03/11 13:16:49;;;;;;;;;7.50;7.00;;;;;7.02;57.80;97007.31;6262183;27;96614;-62
2023/03/11 13:19:54;;;;;;;;;7.00;7.00;;;;;7.06;57.53;97013.81;6268297;27;99013;-62
2023/03/11 13:23:20;;;;;;;;;8.00;7.00;;;;;6.91;57.64;97017.88;6227143;27;97111;-63
2023/03/11 13:26:37;;;;;;;;;6.80;6.20;;;;;7.05;58.18;97029.06;6257305;27;96342;-62
2023/03/11 13:29:53;;;;;;;;;9.00;8.60;;;;;6.89;59.09;97036.03;6265513;27;96747;-62
2023/03/11 13:33:17;;;;;;;;;7.00;6.00;;;;;6.87;59.24;97048.06;6228493;27;96589;-62
2023/03/11 13:36:39;;;;;;;;;7.60;7.60;;;;;6.89;58.28;97062.81;6213877;27;96341;-63
2023/03/11 13:39:54;;;;;;;;;8.20;7.20;;;;;6.99;58.10;97074.78;6259731;27;97088;-62
2023/03/11 13:43:02;;;;;;;;;9.00;8.00;;;;;7.00;58.17;97079.06;6254125;27;96721;-63
2023/03/11 13:46:14;;;;;;;;;8.60;8.00;;;;;6.89;58.51;97096.88;6273602;27;96451;-62
2023/03/11 13:49:31;;;;;;;;;7.60;7.20;;;;;6.64;59.03;97078.47;6282383;27;98885;-62
2023/03/11 13:52:38;;;;;;;;;6.00;6.00;;;;;6.91;58.74;97103.59;6297752;27;97453;-62
2023/03/11 13:55:46;;;;;;;;;9.60;9.60;;;;;6.98;58.22;97119.53;6260255;27;96349;-62
2023/03/11 13:58:49;;;;;;;;;8.60;7.60;;;;;6.96;58.38;97118.94;6240873;27;96367;-63
2023/03/11 14:01:55;;;;;;;;;8.00;8.00;;;;;6.92;58.50;97121.28;6274616;27;96302;-62
2023/03/11 14:05:04;;;;;;;;;6.00;6.00;;;;;6.97;58.82;97136.63;6254318;27;96226;-63
2023/03/11 14:08:21;;;;;;;;;6.60;6.00;;;;;6.89;58.78;97140.50;6273004;27;96470;-62
2023/03/11 14:11:29;;;;;;;;;6.60;6.00;;;;;6.93;58.72;97159.59;6310030;27;96317;-63
2023/03/11 14:14:43;;;;;;;;;8.60;8.60;;;;;6.90;58.86;97170.78;6252127;27;96360;-63
2023/03/11 14:17:46;;;;;;;;;11.00;10.20;;;;;6.85;58.78;97163.47;6253980;27;96568;-62
2023/03/11 14:20:51;;;;;;;;;7.50;7.00;;;;;6.87;58.19;97182.81;6296681;27;96190;-63
2023/03/11 14:23:56;;;;;;;;;9.25;9.00;;;;;6.55;57.72;97178.94;6201555;27;97511;-63
2023/03/11 14:27:04;;;;;;;;;9.00;9.00;;;;;6.70;57.47;97192.63;6246667;27;96731;-62
2023/03/11 14:30:08;;;;;;;;;7.40;7.40;;;;;6.58;56.75;97218.66;6259167;27;96285;-62
2023/03/11 14:33:22;;;;;;;;;9.00;9.00;;;;;6.51;56.36;97193.84;6281500;27;96382;-62
2023/03/11 14:36:25;;;;;;;;;9.00;8.40;;;;;6.87;56.91;97217.63;6256434;27;99064;-62
2023/03/11 14:39:31;;;;;;;;;10.75;9.75;;;;;6.78;55.71;97227.09;6212041;27;96471;-62
2023/03/11 14:42:39;;;;;;;;;8.25;8.00;;;;;6.69;54.71;97238.41;6191407;27;96222;-62